sensor_id;sensor_type;location;lat;lon;timestamp;P1;durP1;ratioP1;P2;durP2;ratioP2
61015;SDS011;46902;52.920;6.536;2023-08-12T00:00:27;7.45;;;3.38;;
61015;SDS011;46902;52.920;6.536;2023-08-12T00:02:53;5.85;;;3.53;;
61015;SDS011;46902;52.920;6.536;2023-08-12T00:05:18;8.50;;;3.88;;
61015;SDS011;46902;52.920;6.536;2023-08-12T00:07:44;6.50;;;3.55;;
61015;SDS011;46902;52.920;6.536;2023-08-12T00:10:10;4.72;;;3.45;;
61015;SDS011;46902;52.920;6.536;2023-08-12T00:12:37;7.43;;;3.67;;
61015;SDS011;46902;52.920;6.536;2023-08-12T00:15:03;5.35;;;3.60;;
61015;SDS011;46902;52.920;6.536;2023-08-12T00:17:31;4.03;;;3.47;;
61015;SDS011;46902;52.920;6.536;2023-08-12T00:19:57;4.68;;;3.30;;
61015;SDS011;46902;52.920;6.536;2023-08-12T00:22:22;4.85;;;2.80;;
61015;SDS011;46902;52.920;6.536;2023-08-12T00:24:48;6.03;;;3.13;;
61015;SDS011;46902;52.920;6.536;2023-08-12T00:27:14;5.22;;;2.80;;
61015;SDS011;46902;52.920;6.536;2023-08-12T00:29:40;5.13;;;3.00;;
61015;SDS011;46902;52.920;6.536;2023-08-12T00:32:05;8.50;;;2.83;;
61015;SDS011;46902;52.920;6.536;2023-08-12T00:34:31;6.60;;;3.38;;
61015;SDS011;46902;52.920;6.536;2023-08-12T00:36:57;8.80;;;3.42;;
61015;SDS011;46902;52.920;6.536;2023-08-12T00:39:22;7.65;;;3.78;;
61015;SDS011;46902;52.920;6.536;2023-08-12T00:41:48;6.18;;;3.65;;
61015;SDS011;46902;52.920;6.536;2023-08-12T00:44:14;7.57;;;3.53;;
61015;SDS011;46902;52.920;6.536;2023-08-12T00:46:40;4.88;;;3.60;;
61015;SDS011;46902;52.920;6.536;2023-08-12T00:49:07;6.70;;;3.83;;
61015;SDS011;46902;52.920;6.536;2023-08-12T00:51:34;6.15;;;3.97;;
61015;SDS011;46902;52.920;6.536;2023-08-12T00:54:07;7.80;;;4.25;;
61015;SDS011;46902;52.920;6.536;2023-08-12T00:56:36;7.88;;;4.70;;
61015;SDS011;46902;52.920;6.536;2023-08-12T00:59:02;8.18;;;5.03;;
61015;SDS011;46902;52.920;6.536;2023-08-12T01:01:30;6.47;;;4.50;;
61015;SDS011;46902;52.920;6.536;2023-08-12T01:03:56;7.30;;;4.45;;
61015;SDS011;46902;52.920;6.536;2023-08-12T01:06:23;6.18;;;4.70;;
61015;SDS011;46902;52.920;6.536;2023-08-12T01:08:49;7.65;;;5.03;;
61015;SDS011;46902;52.920;6.536;2023-08-12T01:11:24;7.40;;;5.10;;
61015;SDS011;46902;52.920;6.536;2023-08-12T01:14:16;9.65;;;5.15;;
61015;SDS011;46902;52.920;6.536;2023-08-12T01:16:47;8.70;;;5.63;;
61015;SDS011;46902;52.920;6.536;2023-08-12T01:19:21;9.55;;;5.72;;
61015;SDS011;46902;52.920;6.536;2023-08-12T01:22:08;11.70;;;6.50;;
61015;SDS011;46902;52.920;6.536;2023-08-12T01:24:42;9.95;;;5.75;;
61015;SDS011;46902;52.920;6.536;2023-08-12T01:27:09;12.00;;;6.45;;
61015;SDS011;46902;52.920;6.536;2023-08-12T01:29:44;11.80;;;6.28;;
61015;SDS011;46902;52.920;6.536;2023-08-12T01:35:07;8.85;;;6.97;;
61015;SDS011;46902;52.920;6.536;2023-08-12T01:37:46;9.07;;;6.45;;
61015;SDS011;46902;52.920;6.536;2023-08-12T01:40:15;10.23;;;6.57;;
61015;SDS011;46902;52.920;6.536;2023-08-12T01:42:41;13.15;;;7.13;;
61015;SDS011;46902;52.920;6.536;2023-08-12T01:45:08;10.95;;;6.80;;
61015;SDS011;46902;52.920;6.536;2023-08-12T01:47:33;10.32;;;6.97;;
61015;SDS011;46902;52.920;6.536;2023-08-12T01:49:59;9.10;;;6.70;;
61015;SDS011;46902;52.920;6.536;2023-08-12T01:52:25;11.13;;;6.78;;
61015;SDS011;46902;52.920;6.536;2023-08-12T01:54:50;10.48;;;7.07;;
61015;SDS011;46902;52.920;6.536;2023-08-12T01:57:16;11.90;;;7.70;;
61015;SDS011;46902;52.920;6.536;2023-08-12T01:59:42;11.18;;;6.82;;
61015;SDS011;46902;52.920;6.536;2023-08-12T02:02:11;10.50;;;6.85;;
61015;SDS011;46902;52.920;6.536;2023-08-12T02:04:36;11.95;;;7.47;;
61015;SDS011;46902;52.920;6.536;2023-08-12T02:07:03;8.57;;;6.28;;
61015;SDS011;46902;52.920;6.536;2023-08-12T02:09:29;11.93;;;7.15;;
61015;SDS011;46902;52.920;6.536;2023-08-12T02:11:55;12.40;;;7.68;;
61015;SDS011;46902;52.920;6.536;2023-08-12T02:14:21;12.50;;;7.70;;
61015;SDS011;46902;52.920;6.536;2023-08-12T02:16:47;10.77;;;7.38;;
61015;SDS011;46902;52.920;6.536;2023-08-12T02:19:12;12.95;;;8.63;;
61015;SDS011;46902;52.920;6.536;2023-08-12T02:21:38;11.85;;;8.02;;
61015;SDS011;46902;52.920;6.536;2023-08-12T02:24:03;12.63;;;8.13;;
61015;SDS011;46902;52.920;6.536;2023-08-12T02:26:29;9.95;;;8.18;;
61015;SDS011;46902;52.920;6.536;2023-08-12T02:28:55;14.25;;;8.32;;
61015;SDS011;46902;52.920;6.536;2023-08-12T02:31:21;11.45;;;8.30;;
61015;SDS011;46902;52.920;6.536;2023-08-12T02:33:47;11.68;;;8.45;;
61015;SDS011;46902;52.920;6.536;2023-08-12T02:36:14;10.68;;;8.48;;
61015;SDS011;46902;52.920;6.536;2023-08-12T02:38:40;12.50;;;8.40;;
61015;SDS011;46902;52.920;6.536;2023-08-12T02:41:05;12.32;;;8.35;;
61015;SDS011;46902;52.920;6.536;2023-08-12T02:43:31;14.35;;;8.40;;
61015;SDS011;46902;52.920;6.536;2023-08-12T02:45:56;11.38;;;8.05;;
61015;SDS011;46902;52.920;6.536;2023-08-12T02:48:22;11.60;;;7.63;;
61015;SDS011;46902;52.920;6.536;2023-08-12T02:50:48;13.95;;;9.38;;
61015;SDS011;46902;52.920;6.536;2023-08-12T02:53:14;12.27;;;8.02;;
61015;SDS011;46902;52.920;6.536;2023-08-12T02:55:41;12.75;;;8.15;;
61015;SDS011;46902;52.920;6.536;2023-08-12T02:58:06;11.70;;;8.50;;
61015;SDS011;46902;52.920;6.536;2023-08-12T03:00:32;11.13;;;8.48;;
61015;SDS011;46902;52.920;6.536;2023-08-12T03:02:57;11.10;;;8.25;;
61015;SDS011;46902;52.920;6.536;2023-08-12T03:05:23;13.27;;;8.00;;
61015;SDS011;46902;52.920;6.536;2023-08-12T03:07:49;12.05;;;8.55;;
61015;SDS011;46902;52.920;6.536;2023-08-12T03:10:14;12.63;;;8.60;;
61015;SDS011;46902;52.920;6.536;2023-08-12T03:12:40;12.15;;;8.68;;
61015;SDS011;46902;52.920;6.536;2023-08-12T03:15:06;13.60;;;8.55;;
61015;SDS011;46902;52.920;6.536;2023-08-12T03:17:32;12.57;;;8.48;;
61015;SDS011;46902;52.920;6.536;2023-08-12T03:19:58;13.18;;;8.82;;
61015;SDS011;46902;52.920;6.536;2023-08-12T03:22:30;11.38;;;8.45;;
61015;SDS011;46902;52.920;6.536;2023-08-12T03:24:55;11.95;;;9.07;;
61015;SDS011;46902;52.920;6.536;2023-08-12T03:27:21;13.35;;;8.30;;
61015;SDS011;46902;52.920;6.536;2023-08-12T03:29:47;14.73;;;9.45;;
61015;SDS011;46902;52.920;6.536;2023-08-12T03:32:12;13.88;;;9.00;;
61015;SDS011;46902;52.920;6.536;2023-08-12T03:34:38;14.30;;;9.13;;
61015;SDS011;46902;52.920;6.536;2023-08-12T03:37:04;12.25;;;8.60;;
61015;SDS011;46902;52.920;6.536;2023-08-12T03:39:29;14.77;;;9.27;;
61015;SDS011;46902;52.920;6.536;2023-08-12T03:41:55;13.90;;;9.40;;
61015;SDS011;46902;52.920;6.536;2023-08-12T03:44:21;12.50;;;9.00;;
61015;SDS011;46902;52.920;6.536;2023-08-12T03:46:46;14.90;;;9.00;;
61015;SDS011;46902;52.920;6.536;2023-08-12T03:49:12;10.93;;;8.82;;
61015;SDS011;46902;52.920;6.536;2023-08-12T03:51:37;14.50;;;8.68;;
61015;SDS011;46902;52.920;6.536;2023-08-12T03:54:03;15.07;;;9.02;;
61015;SDS011;46902;52.920;6.536;2023-08-12T03:56:29;17.02;;;9.60;;
61015;SDS011;46902;52.920;6.536;2023-08-12T03:58:55;15.45;;;9.45;;
61015;SDS011;46902;52.920;6.536;2023-08-12T04:01:20;12.55;;;8.98;;
61015;SDS011;46902;52.920;6.536;2023-08-12T04:03:46;12.23;;;8.70;;
61015;SDS011;46902;52.920;6.536;2023-08-12T04:06:12;13.57;;;9.52;;
61015;SDS011;46902;52.920;6.536;2023-08-12T04:08:37;14.57;;;9.23;;
61015;SDS011;46902;52.920;6.536;2023-08-12T04:11:03;12.25;;;9.65;;
61015;SDS011;46902;52.920;6.536;2023-08-12T04:13:29;12.63;;;9.68;;
61015;SDS011;46902;52.920;6.536;2023-08-12T04:15:55;10.50;;;8.77;;
61015;SDS011;46902;52.920;6.536;2023-08-12T04:18:21;12.38;;;8.93;;
61015;SDS011;46902;52.920;6.536;2023-08-12T04:20:50;10.25;;;8.45;;
61015;SDS011;46902;52.920;6.536;2023-08-12T04:23:17;13.65;;;9.95;;
61015;SDS011;46902;52.920;6.536;2023-08-12T04:25:43;12.73;;;9.18;;
61015;SDS011;46902;52.920;6.536;2023-08-12T04:28:10;12.48;;;9.90;;
61015;SDS011;46902;52.920;6.536;2023-08-12T04:30:40;14.23;;;9.48;;
61015;SDS011;46902;52.920;6.536;2023-08-12T04:33:12;14.73;;;8.88;;
61015;SDS011;46902;52.920;6.536;2023-08-12T04:35:39;16.00;;;9.30;;
61015;SDS011;46902;52.920;6.536;2023-08-12T04:38:05;11.63;;;8.80;;
61015;SDS011;46902;52.920;6.536;2023-08-12T04:40:31;15.07;;;9.95;;
61015;SDS011;46902;52.920;6.536;2023-08-12T04:42:58;14.57;;;9.48;;
61015;SDS011;46902;52.920;6.536;2023-08-12T04:45:24;17.00;;;9.13;;
61015;SDS011;46902;52.920;6.536;2023-08-12T04:47:50;15.65;;;10.63;;
61015;SDS011;46902;52.920;6.536;2023-08-12T04:50:15;16.00;;;10.05;;
61015;SDS011;46902;52.920;6.536;2023-08-12T04:52:41;12.75;;;9.20;;
61015;SDS011;46902;52.920;6.536;2023-08-12T04:55:07;14.02;;;9.27;;
61015;SDS011;46902;52.920;6.536;2023-08-12T04:57:33;11.00;;;9.27;;
61015;SDS011;46902;52.920;6.536;2023-08-12T04:59:58;13.63;;;8.93;;
61015;SDS011;46902;52.920;6.536;2023-08-12T05:02:24;13.15;;;8.80;;
61015;SDS011;46902;52.920;6.536;2023-08-12T05:04:50;13.40;;;9.40;;
61015;SDS011;46902;52.920;6.536;2023-08-12T05:07:16;12.50;;;8.98;;
61015;SDS011;46902;52.920;6.536;2023-08-12T05:09:42;15.93;;;9.57;;
61015;SDS011;46902;52.920;6.536;2023-08-12T05:12:10;13.15;;;9.52;;
61015;SDS011;46902;52.920;6.536;2023-08-12T05:14:36;15.65;;;10.43;;
61015;SDS011;46902;52.920;6.536;2023-08-12T05:17:04;15.85;;;9.88;;
61015;SDS011;46902;52.920;6.536;2023-08-12T05:19:30;12.57;;;9.52;;
61015;SDS011;46902;52.920;6.536;2023-08-12T05:21:56;15.50;;;10.32;;
61015;SDS011;46902;52.920;6.536;2023-08-12T05:24:21;15.68;;;9.80;;
61015;SDS011;46902;52.920;6.536;2023-08-12T05:26:47;14.07;;;10.60;;
61015;SDS011;46902;52.920;6.536;2023-08-12T05:29:12;14.45;;;10.43;;
61015;SDS011;46902;52.920;6.536;2023-08-12T05:31:38;14.68;;;11.43;;
61015;SDS011;46902;52.920;6.536;2023-08-12T05:34:04;18.50;;;11.63;;
61015;SDS011;46902;52.920;6.536;2023-08-12T05:36:29;14.35;;;11.75;;
61015;SDS011;46902;52.920;6.536;2023-08-12T05:38:55;16.33;;;11.85;;
61015;SDS011;46902;52.920;6.536;2023-08-12T05:41:21;17.63;;;11.93;;
61015;SDS011;46902;52.920;6.536;2023-08-12T05:43:47;17.55;;;12.45;;
61015;SDS011;46902;52.920;6.536;2023-08-12T05:46:13;18.75;;;12.50;;
61015;SDS011;46902;52.920;6.536;2023-08-12T05:48:39;17.95;;;12.50;;
61015;SDS011;46902;52.920;6.536;2023-08-12T05:51:04;14.95;;;10.68;;
61015;SDS011;46902;52.920;6.536;2023-08-12T05:53:30;15.23;;;12.02;;
61015;SDS011;46902;52.920;6.536;2023-08-12T05:55:57;18.00;;;12.30;;
61015;SDS011;46902;52.920;6.536;2023-08-12T05:58:22;18.70;;;12.73;;
61015;SDS011;46902;52.920;6.536;2023-08-12T06:00:48;19.77;;;12.73;;
61015;SDS011;46902;52.920;6.536;2023-08-12T06:03:13;14.23;;;11.60;;
61015;SDS011;46902;52.920;6.536;2023-08-12T06:05:40;15.05;;;12.00;;
61015;SDS011;46902;52.920;6.536;2023-08-12T06:08:06;17.65;;;11.80;;
61015;SDS011;46902;52.920;6.536;2023-08-12T06:10:32;16.05;;;12.23;;
61015;SDS011;46902;52.920;6.536;2023-08-12T06:12:58;17.77;;;13.38;;
61015;SDS011;46902;52.920;6.536;2023-08-12T06:15:24;14.80;;;11.80;;
61015;SDS011;46902;52.920;6.536;2023-08-12T06:17:49;18.27;;;12.48;;
61015;SDS011;46902;52.920;6.536;2023-08-12T06:20:15;22.25;;;12.93;;
61015;SDS011;46902;52.920;6.536;2023-08-12T06:22:41;20.05;;;13.02;;
61015;SDS011;46902;52.920;6.536;2023-08-12T06:25:07;18.95;;;12.90;;
61015;SDS011;46902;52.920;6.536;2023-08-12T06:27:33;18.90;;;13.05;;
61015;SDS011;46902;52.920;6.536;2023-08-12T06:29:58;22.25;;;13.88;;
61015;SDS011;46902;52.920;6.536;2023-08-12T06:32:24;21.33;;;13.60;;
61015;SDS011;46902;52.920;6.536;2023-08-12T06:34:49;24.73;;;13.90;;
61015;SDS011;46902;52.920;6.536;2023-08-12T06:37:15;20.45;;;14.00;;
61015;SDS011;46902;52.920;6.536;2023-08-12T06:39:40;18.88;;;13.95;;
61015;SDS011;46902;52.920;6.536;2023-08-12T06:42:06;17.65;;;12.70;;
61015;SDS011;46902;52.920;6.536;2023-08-12T06:44:32;22.48;;;15.18;;
61015;SDS011;46902;52.920;6.536;2023-08-12T06:46:57;19.92;;;14.50;;
61015;SDS011;46902;52.920;6.536;2023-08-12T06:49:23;21.80;;;15.38;;
61015;SDS011;46902;52.920;6.536;2023-08-12T06:51:48;19.63;;;14.52;;
61015;SDS011;46902;52.920;6.536;2023-08-12T06:54:14;23.95;;;16.05;;
61015;SDS011;46902;52.920;6.536;2023-08-12T06:56:39;24.40;;;15.50;;
61015;SDS011;46902;52.920;6.536;2023-08-12T06:59:05;19.73;;;14.48;;
61015;SDS011;46902;52.920;6.536;2023-08-12T07:01:31;19.65;;;13.75;;
61015;SDS011;46902;52.920;6.536;2023-08-12T07:03:57;22.90;;;14.88;;
61015;SDS011;46902;52.920;6.536;2023-08-12T07:06:22;20.77;;;15.50;;
61015;SDS011;46902;52.920;6.536;2023-08-12T07:08:48;20.92;;;15.68;;
61015;SDS011;46902;52.920;6.536;2023-08-12T07:11:14;23.75;;;16.52;;
61015;SDS011;46902;52.920;6.536;2023-08-12T07:13:39;25.35;;;16.52;;
61015;SDS011;46902;52.920;6.536;2023-08-12T07:16:05;23.73;;;16.73;;
61015;SDS011;46902;52.920;6.536;2023-08-12T07:18:30;20.15;;;14.77;;
61015;SDS011;46902;52.920;6.536;2023-08-12T07:20:56;21.70;;;15.88;;
61015;SDS011;46902;52.920;6.536;2023-08-12T07:23:23;21.08;;;14.80;;
61015;SDS011;46902;52.920;6.536;2023-08-12T07:25:49;23.45;;;15.35;;
61015;SDS011;46902;52.920;6.536;2023-08-12T07:28:15;24.95;;;15.85;;
61015;SDS011;46902;52.920;6.536;2023-08-12T07:30:40;23.35;;;16.27;;
61015;SDS011;46902;52.920;6.536;2023-08-12T07:33:06;23.67;;;16.80;;
61015;SDS011;46902;52.920;6.536;2023-08-12T07:35:32;17.23;;;15.35;;
61015;SDS011;46902;52.920;6.536;2023-08-12T07:37:57;23.08;;;16.55;;
61015;SDS011;46902;52.920;6.536;2023-08-12T07:40:23;23.88;;;15.68;;
61015;SDS011;46902;52.920;6.536;2023-08-12T07:42:49;20.73;;;16.45;;
61015;SDS011;46902;52.920;6.536;2023-08-12T07:45:14;21.90;;;16.40;;
61015;SDS011;46902;52.920;6.536;2023-08-12T07:47:40;24.95;;;16.55;;
61015;SDS011;46902;52.920;6.536;2023-08-12T07:50:05;21.70;;;16.63;;
61015;SDS011;46902;52.920;6.536;2023-08-12T07:52:32;22.38;;;17.23;;
61015;SDS011;46902;52.920;6.536;2023-08-12T07:54:57;23.65;;;16.58;;
61015;SDS011;46902;52.920;6.536;2023-08-12T07:57:23;22.40;;;17.30;;
61015;SDS011;46902;52.920;6.536;2023-08-12T07:59:52;22.27;;;17.40;;
61015;SDS011;46902;52.920;6.536;2023-08-12T08:02:17;22.92;;;15.77;;
61015;SDS011;46902;52.920;6.536;2023-08-12T08:04:43;21.33;;;15.23;;
61015;SDS011;46902;52.920;6.536;2023-08-12T08:07:09;23.67;;;15.18;;
61015;SDS011;46902;52.920;6.536;2023-08-12T08:09:35;23.50;;;16.02;;
61015;SDS011;46902;52.920;6.536;2023-08-12T08:12:01;19.00;;;15.00;;
61015;SDS011;46902;52.920;6.536;2023-08-12T08:14:26;18.58;;;14.90;;
61015;SDS011;46902;52.920;6.536;2023-08-12T08:16:52;20.02;;;14.88;;
61015;SDS011;46902;52.920;6.536;2023-08-12T08:19:18;17.67;;;14.50;;
61015;SDS011;46902;52.920;6.536;2023-08-12T08:21:44;17.95;;;14.13;;
61015;SDS011;46902;52.920;6.536;2023-08-12T08:24:10;17.50;;;14.57;;
61015;SDS011;46902;52.920;6.536;2023-08-12T08:26:38;17.42;;;14.15;;
61015;SDS011;46902;52.920;6.536;2023-08-12T08:29:05;20.30;;;14.27;;
61015;SDS011;46902;52.920;6.536;2023-08-12T08:31:31;20.10;;;14.60;;
61015;SDS011;46902;52.920;6.536;2023-08-12T08:33:57;20.35;;;14.63;;
61015;SDS011;46902;52.920;6.536;2023-08-12T08:36:22;20.60;;;15.20;;
61015;SDS011;46902;52.920;6.536;2023-08-12T08:38:48;19.92;;;15.77;;
61015;SDS011;46902;52.920;6.536;2023-08-12T08:41:14;20.50;;;16.73;;
61015;SDS011;46902;52.920;6.536;2023-08-12T08:43:42;22.52;;;16.23;;
61015;SDS011;46902;52.920;6.536;2023-08-12T08:46:10;21.77;;;14.80;;
61015;SDS011;46902;52.920;6.536;2023-08-12T08:48:40;19.20;;;15.30;;
61015;SDS011;46902;52.920;6.536;2023-08-12T08:51:07;17.13;;;15.15;;
61015;SDS011;46902;52.920;6.536;2023-08-12T08:53:35;18.02;;;15.30;;
61015;SDS011;46902;52.920;6.536;2023-08-12T08:56:04;19.08;;;14.77;;
61015;SDS011;46902;52.920;6.536;2023-08-12T08:58:30;19.73;;;14.13;;
61015;SDS011;46902;52.920;6.536;2023-08-12T09:00:56;20.40;;;17.00;;
61015;SDS011;46902;52.920;6.536;2023-08-12T09:03:22;19.77;;;16.00;;
61015;SDS011;46902;52.920;6.536;2023-08-12T09:05:48;19.23;;;16.23;;
61015;SDS011;46902;52.920;6.536;2023-08-12T09:08:15;23.88;;;17.40;;
61015;SDS011;46902;52.920;6.536;2023-08-12T09:10:41;25.23;;;16.88;;
61015;SDS011;46902;52.920;6.536;2023-08-12T09:13:08;19.27;;;13.95;;
61015;SDS011;46902;52.920;6.536;2023-08-12T09:15:34;16.35;;;11.52;;
61015;SDS011;46902;52.920;6.536;2023-08-12T09:17:59;11.40;;;7.53;;
61015;SDS011;46902;52.920;6.536;2023-08-12T09:20:25;8.48;;;5.88;;
61015;SDS011;46902;52.920;6.536;2023-08-12T09:22:55;10.15;;;5.47;;
61015;SDS011;46902;52.920;6.536;2023-08-12T09:25:23;9.50;;;4.90;;
61015;SDS011;46902;52.920;6.536;2023-08-12T09:27:49;7.32;;;4.57;;
61015;SDS011;46902;52.920;6.536;2023-08-12T09:30:15;10.27;;;4.57;;
61015;SDS011;46902;52.920;6.536;2023-08-12T09:32:40;7.25;;;3.50;;
61015;SDS011;46902;52.920;6.536;2023-08-12T09:35:10;8.35;;;3.58;;
61015;SDS011;46902;52.920;6.536;2023-08-12T09:37:41;12.80;;;4.15;;
61015;SDS011;46902;52.920;6.536;2023-08-12T09:40:07;8.68;;;3.33;;
61015;SDS011;46902;52.920;6.536;2023-08-12T09:42:34;9.48;;;4.10;;
61015;SDS011;46902;52.920;6.536;2023-08-12T09:44:59;9.38;;;3.88;;
61015;SDS011;46902;52.920;6.536;2023-08-12T09:47:25;7.78;;;3.70;;
61015;SDS011;46902;52.920;6.536;2023-08-12T09:49:52;7.90;;;3.65;;
61015;SDS011;46902;52.920;6.536;2023-08-12T09:52:17;9.75;;;4.88;;
61015;SDS011;46902;52.920;6.536;2023-08-12T09:54:43;12.30;;;5.20;;
61015;SDS011;46902;52.920;6.536;2023-08-12T09:57:10;8.45;;;3.63;;
61015;SDS011;46902;52.920;6.536;2023-08-12T09:59:38;10.82;;;4.45;;
61015;SDS011;46902;52.920;6.536;2023-08-12T10:02:06;8.30;;;3.70;;
61015;SDS011;46902;52.920;6.536;2023-08-12T10:04:37;9.98;;;3.78;;
61015;SDS011;46902;52.920;6.536;2023-08-12T10:07:06;9.68;;;3.92;;
61015;SDS011;46902;52.920;6.536;2023-08-12T10:09:34;7.88;;;4.10;;
61015;SDS011;46902;52.920;6.536;2023-08-12T10:12:01;8.68;;;4.40;;
61015;SDS011;46902;52.920;6.536;2023-08-12T10:14:27;9.75;;;4.95;;
61015;SDS011;46902;52.920;6.536;2023-08-12T10:16:53;8.50;;;4.50;;
61015;SDS011;46902;52.920;6.536;2023-08-12T10:19:19;8.93;;;4.18;;
61015;SDS011;46902;52.920;6.536;2023-08-12T10:21:47;6.32;;;3.28;;
61015;SDS011;46902;52.920;6.536;2023-08-12T10:24:14;5.15;;;3.17;;
61015;SDS011;46902;52.920;6.536;2023-08-12T10:26:42;6.40;;;3.35;;
61015;SDS011;46902;52.920;6.536;2023-08-12T10:29:08;6.60;;;3.78;;
61015;SDS011;46902;52.920;6.536;2023-08-12T10:31:34;4.63;;;3.42;;
61015;SDS011;46902;52.920;6.536;2023-08-12T10:34:00;5.15;;;3.30;;
61015;SDS011;46902;52.920;6.536;2023-08-12T10:36:26;6.85;;;4.28;;
61015;SDS011;46902;52.920;6.536;2023-08-12T10:38:52;8.85;;;3.72;;
61015;SDS011;46902;52.920;6.536;2023-08-12T10:41:18;5.97;;;3.83;;
61015;SDS011;46902;52.920;6.536;2023-08-12T10:43:51;9.93;;;4.07;;
61015;SDS011;46902;52.920;6.536;2023-08-12T10:49:02;6.65;;;3.33;;
61015;SDS011;46902;52.920;6.536;2023-08-12T10:51:43;6.60;;;2.45;;
61015;SDS011;46902;52.920;6.536;2023-08-12T10:54:17;2.28;;;1.35;;
61015;SDS011;46902;52.920;6.536;2023-08-12T11:02:26;0.77;;;0.70;;
61015;SDS011;46902;52.920;6.536;2023-08-12T11:04:55;2.05;;;0.80;;
61015;SDS011;46902;52.920;6.536;2023-08-12T11:10:16;3.67;;;1.02;;
61015;SDS011;46902;52.920;6.536;2023-08-12T11:12:53;2.13;;;1.00;;
61015;SDS011;46902;52.920;6.536;2023-08-12T11:18:15;1.83;;;0.80;;
61015;SDS011;46902;52.920;6.536;2023-08-12T11:20:42;1.90;;;0.70;;
61015;SDS011;46902;52.920;6.536;2023-08-12T11:23:08;1.83;;;0.73;;
61015;SDS011;46902;52.920;6.536;2023-08-12T11:25:36;1.90;;;0.88;;
61015;SDS011;46902;52.920;6.536;2023-08-12T11:28:03;1.50;;;0.90;;
61015;SDS011;46902;52.920;6.536;2023-08-12T11:30:30;2.83;;;1.08;;
61015;SDS011;46902;52.920;6.536;2023-08-12T11:32:56;2.25;;;0.90;;
61015;SDS011;46902;52.920;6.536;2023-08-12T11:35:23;1.67;;;0.70;;
61015;SDS011;46902;52.920;6.536;2023-08-12T11:37:50;1.15;;;0.75;;
61015;SDS011;46902;52.920;6.536;2023-08-12T11:40:24;2.95;;;1.20;;
61015;SDS011;46902;52.920;6.536;2023-08-12T11:42:51;1.83;;;0.80;;
61015;SDS011;46902;52.920;6.536;2023-08-12T11:45:18;3.65;;;0.82;;
61015;SDS011;46902;52.920;6.536;2023-08-12T11:47:45;1.63;;;1.10;;
61015;SDS011;46902;52.920;6.536;2023-08-12T11:50:17;2.92;;;0.90;;
61015;SDS011;46902;52.920;6.536;2023-08-12T11:52:44;2.22;;;1.20;;
61015;SDS011;46902;52.920;6.536;2023-08-12T11:55:11;1.50;;;1.13;;
61015;SDS011;46902;52.920;6.536;2023-08-12T11:57:37;2.20;;;1.38;;
61015;SDS011;46902;52.920;6.536;2023-08-12T12:00:05;2.58;;;1.42;;
61015;SDS011;46902;52.920;6.536;2023-08-12T12:07:42;2.38;;;0.65;;
61015;SDS011;46902;52.920;6.536;2023-08-12T12:10:12;2.10;;;0.90;;
61015;SDS011;46902;52.920;6.536;2023-08-12T12:12:40;3.35;;;1.35;;
61015;SDS011;46902;52.920;6.536;2023-08-12T12:15:06;2.08;;;1.05;;
61015;SDS011;46902;52.920;6.536;2023-08-12T12:17:32;3.13;;;1.30;;
61015;SDS011;46902;52.920;6.536;2023-08-12T12:20:03;2.42;;;1.48;;
61015;SDS011;46902;52.920;6.536;2023-08-12T12:22:30;3.55;;;1.27;;
61015;SDS011;46902;52.920;6.536;2023-08-12T12:25:00;3.50;;;1.35;;
61015;SDS011;46902;52.920;6.536;2023-08-12T12:27:32;1.85;;;1.20;;
61015;SDS011;46902;52.920;6.536;2023-08-12T12:29:58;4.40;;;1.60;;
61015;SDS011;46902;52.920;6.536;2023-08-12T12:32:24;3.85;;;1.33;;
61015;SDS011;46902;52.920;6.536;2023-08-12T12:34:50;2.67;;;1.10;;
61015;SDS011;46902;52.920;6.536;2023-08-12T12:37:16;5.30;;;1.50;;
61015;SDS011;46902;52.920;6.536;2023-08-12T12:39:41;6.40;;;1.35;;
61015;SDS011;46902;52.920;6.536;2023-08-12T12:42:07;5.20;;;1.60;;
61015;SDS011;46902;52.920;6.536;2023-08-12T12:44:33;5.35;;;1.33;;
61015;SDS011;46902;52.920;6.536;2023-08-12T12:46:59;5.90;;;1.50;;
61015;SDS011;46902;52.920;6.536;2023-08-12T12:49:24;3.80;;;1.80;;
61015;SDS011;46902;52.920;6.536;2023-08-12T12:51:50;5.10;;;1.38;;
61015;SDS011;46902;52.920;6.536;2023-08-12T12:54:16;7.93;;;1.98;;
61015;SDS011;46902;52.920;6.536;2023-08-12T12:56:42;5.75;;;1.60;;
61015;SDS011;46902;52.920;6.536;2023-08-12T12:59:07;6.07;;;1.83;;
61015;SDS011;46902;52.920;6.536;2023-08-12T13:01:33;5.32;;;1.80;;
61015;SDS011;46902;52.920;6.536;2023-08-12T13:03:59;6.18;;;1.67;;
61015;SDS011;46902;52.920;6.536;2023-08-12T13:06:24;6.60;;;1.65;;
61015;SDS011;46902;52.920;6.536;2023-08-12T13:08:50;5.68;;;1.65;;
61015;SDS011;46902;52.920;6.536;2023-08-12T13:11:16;5.88;;;1.92;;
61015;SDS011;46902;52.920;6.536;2023-08-12T13:13:41;7.63;;;2.13;;
61015;SDS011;46902;52.920;6.536;2023-08-12T13:16:07;6.25;;;1.98;;
61015;SDS011;46902;52.920;6.536;2023-08-12T13:18:35;6.57;;;1.92;;
61015;SDS011;46902;52.920;6.536;2023-08-12T13:21:01;4.82;;;1.52;;
61015;SDS011;46902;52.920;6.536;2023-08-12T13:23:26;9.82;;;2.00;;
61015;SDS011;46902;52.920;6.536;2023-08-12T13:25:52;5.70;;;1.60;;
61015;SDS011;46902;52.920;6.536;2023-08-12T13:28:18;6.07;;;1.70;;
61015;SDS011;46902;52.920;6.536;2023-08-12T13:30:44;5.32;;;1.48;;
61015;SDS011;46902;52.920;6.536;2023-08-12T13:33:10;5.68;;;1.67;;
61015;SDS011;46902;52.920;6.536;2023-08-12T13:35:36;7.47;;;1.90;;
61015;SDS011;46902;52.920;6.536;2023-08-12T13:38:02;6.07;;;1.80;;
61015;SDS011;46902;52.920;6.536;2023-08-12T13:40:27;7.80;;;2.05;;
61015;SDS011;46902;52.920;6.536;2023-08-12T13:42:53;11.63;;;2.03;;
61015;SDS011;46902;52.920;6.536;2023-08-12T13:45:19;6.70;;;1.73;;
61015;SDS011;46902;52.920;6.536;2023-08-12T13:47:44;6.53;;;1.60;;
61015;SDS011;46902;52.920;6.536;2023-08-12T13:50:10;8.40;;;2.20;;
61015;SDS011;46902;52.920;6.536;2023-08-12T13:52:36;6.28;;;1.55;;
61015;SDS011;46902;52.920;6.536;2023-08-12T13:55:02;8.68;;;2.55;;
61015;SDS011;46902;52.920;6.536;2023-08-12T13:57:28;6.65;;;1.77;;
61015;SDS011;46902;52.920;6.536;2023-08-12T13:59:54;8.00;;;1.83;;
61015;SDS011;46902;52.920;6.536;2023-08-12T14:02:20;8.65;;;2.03;;
61015;SDS011;46902;52.920;6.536;2023-08-12T14:04:45;7.60;;;2.20;;
61015;SDS011;46902;52.920;6.536;2023-08-12T14:07:11;7.47;;;1.98;;
61015;SDS011;46902;52.920;6.536;2023-08-12T14:09:37;10.00;;;2.33;;
61015;SDS011;46902;52.920;6.536;2023-08-12T14:12:02;6.75;;;1.88;;
61015;SDS011;46902;52.920;6.536;2023-08-12T14:14:28;8.57;;;1.70;;
61015;SDS011;46902;52.920;6.536;2023-08-12T14:16:55;9.27;;;2.00;;
61015;SDS011;46902;52.920;6.536;2023-08-12T14:19:20;9.15;;;1.92;;
61015;SDS011;46902;52.920;6.536;2023-08-12T14:21:46;10.07;;;2.25;;
61015;SDS011;46902;52.920;6.536;2023-08-12T14:24:12;9.25;;;1.88;;
61015;SDS011;46902;52.920;6.536;2023-08-12T14:26:40;8.43;;;1.88;;
61015;SDS011;46902;52.920;6.536;2023-08-12T14:29:06;7.85;;;2.10;;
61015;SDS011;46902;52.920;6.536;2023-08-12T14:31:32;8.23;;;1.90;;
61015;SDS011;46902;52.920;6.536;2023-08-12T14:33:59;6.47;;;1.65;;
61015;SDS011;46902;52.920;6.536;2023-08-12T14:36:25;6.22;;;1.90;;
61015;SDS011;46902;52.920;6.536;2023-08-12T14:38:50;9.70;;;1.80;;
61015;SDS011;46902;52.920;6.536;2023-08-12T14:41:16;8.45;;;2.13;;
61015;SDS011;46902;52.920;6.536;2023-08-12T14:43:41;12.23;;;1.98;;
61015;SDS011;46902;52.920;6.536;2023-08-12T14:46:07;8.90;;;2.10;;
61015;SDS011;46902;52.920;6.536;2023-08-12T14:48:33;7.43;;;2.08;;
61015;SDS011;46902;52.920;6.536;2023-08-12T14:50:58;8.07;;;2.00;;
61015;SDS011;46902;52.920;6.536;2023-08-12T14:53:24;9.73;;;2.30;;